Guilford, North Carolina
Current Conditions -  °F | °C
As of 6:54 AM on Wednesday 28 Jan 2015 (Local Time) from KGSO Reporting Station
Clear Clear  
Wind Chill: 23°   Ceiling: Unl
Heat Index: 23°   Visibility: 10mi
Dew Point: 13°   Wind: 0mph
Humidity: 65%   Direction: NA
Pressure: 30.14"   Gusts: NA
Location:  36.1197°N, 79.8944°W
Report Text: KGSO 281154Z 00000KT 10SM CLR M05/M11 A3014 RMK AO2 SLP213 T10501106 11022 21061 53025
Loading
Personal Weather Stations






























Interactive Weather Map New forecast layout! Learn more

10-Day Weather Forecast

Advertisements
Track Severe Weather on mobile